createdAt,value
2018-05-05T00:01:34.465Z,11.35
2018-05-05T00:07:38.840Z,11.14
2018-05-05T00:13:43.246Z,11.38
2018-05-05T00:19:47.603Z,11.49
2018-05-05T00:25:52.132Z,11.31
2018-05-05T00:31:57.413Z,11.27
2018-05-05T00:38:01.812Z,11.13
2018-05-05T00:44:06.175Z,11.05
2018-05-05T00:50:11.299Z,10.98
2018-05-05T00:56:15.810Z,10.71
2018-05-05T01:02:20.243Z,10.45
2018-05-05T01:08:24.690Z,10.11
2018-05-05T01:14:29.832Z,9.95
2018-05-05T01:20:34.185Z,9.68
2018-05-05T01:26:38.540Z,9.34
2018-05-05T01:32:43.672Z,9.15
2018-05-05T01:38:48.015Z,8.77
2018-05-05T01:44:52.608Z,8.57
2018-05-05T01:50:56.974Z,8.37
2018-05-05T01:57:01.320Z,8.36
2018-05-05T02:03:05.656Z,8.43
2018-05-05T02:09:10.008Z,8.08
2018-05-05T02:15:14.352Z,8.03
2018-05-05T02:21:19.601Z,7.99
2018-05-05T02:27:24.777Z,7.93
2018-05-05T02:33:29.142Z,7.94
2018-05-05T02:39:33.510Z,7.75
2018-05-05T02:45:38.129Z,7.52
2018-05-05T02:51:42.473Z,7.56
2018-05-05T02:57:46.859Z,7.40
2018-05-05T03:03:51.363Z,7.25
2018-05-05T03:09:56.703Z,7.49
2018-05-05T03:16:01.812Z,7.21
2018-05-05T03:22:06.207Z,7.05
2018-05-05T03:28:11.481Z,7.04
2018-05-05T03:34:15.853Z,6.95
2018-05-05T03:40:20.248Z,6.97
2018-05-05T03:46:24.617Z,6.88
2018-05-05T03:52:28.990Z,6.90
2018-05-05T03:58:33.392Z,6.79
2018-05-05T04:11:47.350Z,6.82
2018-05-05T04:17:51.927Z,6.62
2018-05-05T04:23:56.398Z,6.77
2018-05-05T04:30:00.761Z,6.88
2018-05-05T04:36:05.206Z,7.06
2018-05-05T04:42:09.607Z,7.11
2018-05-05T04:48:13.985Z,7.45
2018-05-05T04:54:18.362Z,7.66
2018-05-05T05:00:23.008Z,8.00
2018-05-05T05:06:27.750Z,8.11
2018-05-05T05:12:32.244Z,8.37
2018-05-05T05:18:36.703Z,8.71
2018-05-05T05:24:41.166Z,9.05
2018-05-05T05:30:45.541Z,9.37
2018-05-05T05:36:49.993Z,9.46
2018-05-05T05:42:54.384Z,9.68
2018-05-05T05:48:58.768Z,9.86
2018-05-05T05:55:03.194Z,10.16
2018-05-05T06:01:07.574Z,10.44
2018-05-05T06:07:12.737Z,10.80
2018-05-05T06:13:17.140Z,11.17
2018-05-05T06:19:21.617Z,11.47
2018-05-05T06:25:26.056Z,12.00
2018-05-05T06:31:30.519Z,12.41
2018-05-05T06:37:34.878Z,12.68
2018-05-05T06:43:39.315Z,12.93
2018-05-05T06:49:43.705Z,12.97
2018-05-05T06:55:48.092Z,13.51
2018-05-05T07:01:53.592Z,14.06
2018-05-05T07:07:57.994Z,14.42
2018-05-05T07:14:02.358Z,14.72
2018-05-05T07:20:06.878Z,15.21
2018-05-05T07:26:11.244Z,15.41
2018-05-05T07:32:15.800Z,15.95
2018-05-05T07:38:20.548Z,16.51
2018-05-05T07:44:25.378Z,17.09
2018-05-05T07:50:29.733Z,17.58
2018-05-05T07:56:34.106Z,17.44
2018-05-05T08:02:38.514Z,17.85
2018-05-05T08:08:42.932Z,18.06
2018-05-05T08:14:47.396Z,18.08
2018-05-05T08:20:52.067Z,18.94
2018-05-05T08:26:56.385Z,19.38
2018-05-05T08:33:00.845Z,19.48
2018-05-05T08:39:05.978Z,19.47
2018-05-05T08:45:10.360Z,20.35
2018-05-05T08:51:14.758Z,20.86
2018-05-05T08:57:19.282Z,21.23
2018-05-05T09:03:24.263Z,21.36
2018-05-05T09:09:29.443Z,21.68
2018-05-05T09:15:33.944Z,22.14
2018-05-05T09:21:39.144Z,21.12
2018-05-05T09:27:43.824Z,22.15
2018-05-05T09:33:48.497Z,22.09
2018-05-05T09:39:53.451Z,22.28
2018-05-05T09:45:57.805Z,21.70
2018-05-05T09:52:02.207Z,21.96
2018-05-05T09:58:06.580Z,21.69
2018-05-05T10:04:10.968Z,22.89
2018-05-05T10:10:15.376Z,22.86
2018-05-05T10:16:20.217Z,21.99
2018-05-05T10:22:26.212Z,23.40
2018-05-05T10:28:30.572Z,23.90
2018-05-05T10:34:35.024Z,23.95
2018-05-05T10:40:39.469Z,24.88
2018-05-05T10:46:43.847Z,26.39
2018-05-05T10:52:48.452Z,25.80
2018-05-05T10:58:53.549Z,24.64
2018-05-05T11:04:57.961Z,24.72
2018-05-05T11:11:02.535Z,25.42
2018-05-05T11:17:06.903Z,25.62
2018-05-05T11:23:11.301Z,25.57
2018-05-05T11:29:15.671Z,26.53
2018-05-05T11:35:20.534Z,27.46
2018-05-05T11:41:25.257Z,28.66
2018-05-05T11:47:29.666Z,28.33
2018-05-05T11:53:34.026Z,29.28
2018-05-05T11:59:39.159Z,29.90
2018-05-05T12:05:43.559Z,29.90
2018-05-05T12:11:47.995Z,29.20
2018-05-05T12:17:52.401Z,30.92
2018-05-05T12:23:56.769Z,33.03
2018-05-05T12:30:01.179Z,33.32
2018-05-05T12:36:05.582Z,34.54
2018-05-05T12:42:09.999Z,33.60
2018-05-05T12:48:14.354Z,35.28
2018-05-05T12:54:18.914Z,35.35
2018-05-05T13:00:23.650Z,36.28
2018-05-05T13:06:28.643Z,37.57
2018-05-05T13:12:33.908Z,37.12
2018-05-05T13:18:38.302Z,35.26
2018-05-05T13:24:42.670Z,36.44
2018-05-05T13:30:47.056Z,36.37
2018-05-05T13:36:51.518Z,37.15
2018-05-05T13:42:55.950Z,35.44
2018-05-05T13:49:01.075Z,35.13
2018-05-05T13:55:05.560Z,36.39
2018-05-05T14:01:09.941Z,36.75
2018-05-05T14:07:14.325Z,38.74
2018-05-05T14:13:18.746Z,37.25
2018-05-05T14:19:24.396Z,36.39
2018-05-05T14:25:28.780Z,36.36
2018-05-05T14:31:33.225Z,35.51
2018-05-05T14:37:37.724Z,35.61
2018-05-05T14:43:42.183Z,35.56
2018-05-05T14:49:46.558Z,35.02
2018-05-05T14:55:51.865Z,35.05
2018-05-05T15:01:56.740Z,33.56
2018-05-05T15:08:01.922Z,35.07
2018-05-05T15:14:06.317Z,38.16
2018-05-05T15:20:10.808Z,35.86
2018-05-05T15:26:15.187Z,36.74
2018-05-05T15:32:19.692Z,37.64
2018-05-05T15:38:25.146Z,36.54
2018-05-05T15:44:29.645Z,38.19
2018-05-05T15:50:34.007Z,38.30
2018-05-05T15:56:38.384Z,38.84
2018-05-05T16:02:42.757Z,40.12
2018-05-05T16:08:47.151Z,39.27
2018-05-05T16:14:51.575Z,40.58
2018-05-05T16:20:56.957Z,40.32
2018-05-05T16:27:01.336Z,39.40
2018-05-05T16:33:06.556Z,38.38
2018-05-05T16:39:10.917Z,37.10
2018-05-05T16:45:15.420Z,35.27
2018-05-05T16:51:19.807Z,34.88
2018-05-05T16:57:24.329Z,33.95
2018-05-05T17:03:29.478Z,31.96
2018-05-05T17:09:33.839Z,31.58
2018-05-05T17:15:38.196Z,30.29
2018-05-05T17:21:42.559Z,29.92
2018-05-05T17:27:47.810Z,30.65
2018-05-05T17:33:52.266Z,29.97
2018-05-05T17:39:56.627Z,29.79
2018-05-05T17:46:01.032Z,29.19
2018-05-05T17:52:05.389Z,29.22
2018-05-05T17:58:09.793Z,29.22
2018-05-05T18:04:14.251Z,29.39
2018-05-05T18:10:18.618Z,28.69
2018-05-05T18:16:22.996Z,28.36
2018-05-05T18:22:27.509Z,27.43
2018-05-05T18:28:31.910Z,25.98
2018-05-05T18:34:37.108Z,23.28
2018-05-05T18:40:41.451Z,21.10
2018-05-05T18:46:45.812Z,19.43
2018-05-05T18:52:50.366Z,18.08
2018-05-05T18:58:54.857Z,17.44
2018-05-05T19:04:59.222Z,16.89
2018-05-05T19:11:03.595Z,16.56
2018-05-05T19:17:07.974Z,16.47
2018-05-05T19:23:12.336Z,16.21
2018-05-05T19:29:16.686Z,16.05
2018-05-05T19:35:21.162Z,15.89
2018-05-05T19:41:25.615Z,15.87
2018-05-05T19:47:29.978Z,15.75
2018-05-05T19:53:34.337Z,15.59
2018-05-05T19:59:38.698Z,15.37
2018-05-05T20:05:43.077Z,15.34
2018-05-05T20:11:47.432Z,15.04
2018-05-05T20:17:52.609Z,14.87
2018-05-05T20:23:57.011Z,14.86
2018-05-05T20:30:01.368Z,15.01
2018-05-05T20:36:05.747Z,14.92
2018-05-05T20:42:10.102Z,14.97
2018-05-05T20:48:15.249Z,14.80
2018-05-05T20:54:19.776Z,14.62
2018-05-05T21:00:25.191Z,14.62
2018-05-05T21:06:29.628Z,14.78
2018-05-05T21:12:34.000Z,14.62
2018-05-05T21:18:38.360Z,14.64
2018-05-05T21:24:42.715Z,14.31
2018-05-05T21:30:47.082Z,14.04
2018-05-05T21:36:51.588Z,13.87
2018-05-05T21:42:55.961Z,13.49
2018-05-05T21:49:00.334Z,12.99
2018-05-05T21:55:04.732Z,12.89
2018-05-05T22:01:09.157Z,12.89
2018-05-05T22:07:13.525Z,12.86
2018-05-05T22:13:18.002Z,12.80
2018-05-05T22:19:23.788Z,12.94
2018-05-05T22:25:28.237Z,12.78
2018-05-05T22:31:32.644Z,12.32
2018-05-05T22:37:37.135Z,12.15
2018-05-05T22:43:41.496Z,12.10
2018-05-05T22:49:45.863Z,11.88
2018-05-05T22:55:50.266Z,11.69
2018-05-05T23:01:54.672Z,11.62
2018-05-05T23:07:59.098Z,11.61
2018-05-05T23:14:03.466Z,11.40
2018-05-05T23:20:08.584Z,11.22
2018-05-05T23:26:12.951Z,11.03
2018-05-05T23:32:17.313Z,10.76
2018-05-05T23:38:22.264Z,10.56
2018-05-05T23:44:26.614Z,10.67
2018-05-05T23:50:30.964Z,10.48
2018-05-05T23:56:35.319Z,10.39
